Time;durP1;ratioP1;P1;durP2;ratioP2;P2;SDS_P1;SDS_P2;PMS_P1;PMS_P2;Temp;Humidity;BMP_temperature;BMP_pressure;BME280_temperature;BME280_humidity;BME280_pressure;Samples;Min_cycle;Max_cycle;Signal;HPM_P1;HPM_P2
2023/05/17 04:42:51;;;;;;;10.23;1.50;;;;;;;3.40;92.76;97117.31;2082896;28;20577;-56
2023/05/17 04:43:52;;;;;;;7.40;2.15;;;;;;;3.38;92.07;97119.91;2080817;28;20796;-56
2023/05/17 06:49:42;;;;;;;16.58;3.25;;;;;;;9.67;73.12;97224.22;2102429;27;20552;-57
2023/05/17 06:53:06;;;;;;;7.43;2.80;;;;;;;10.04;71.12;97223.03;2076853;27;20574;-57
2023/05/17 06:55:21;;;;;;;12.10;3.75;;;;;;;10.23;71.11;97221.53;2084306;28;20566;-57
2023/05/17 06:57:30;;;;;;;6.05;3.20;;;;;;;9.94;71.73;97223.34;2086749;28;20556;-57
2023/05/17 06:58:34;;;;;;;12.70;2.80;;;;;;;10.15;71.04;97214.84;2081283;28;20588;-57
2023/05/17 06:59:36;;;;;;;15.40;3.45;;;;;;;10.30;70.77;97223.00;2082064;28;20774;-57
2023/05/17 07:00:37;;;;;;;8.00;3.17;;;;;;;10.33;70.14;97222.03;2082057;28;20625;-57
2023/05/17 07:01:39;;;;;;;4.20;2.15;;;;;;;10.36;69.98;97226.31;2082043;28;20284;-57
2023/05/17 07:02:40;;;;;;;5.40;2.45;;;;;;;10.41;69.70;97224.41;2077831;28;20248;-57
2023/05/17 07:03:42;;;;;;;10.30;3.20;;;;;;;10.51;69.37;97223.19;2078349;28;20655;-57
2023/05/17 07:04:44;;;;;;;7.70;2.95;;;;;;;10.42;69.67;97216.56;2083170;28;20200;-57
2023/05/17 07:06:44;;;;;;;8.60;2.70;;;;;;;9.71;70.44;97223.22;2101534;27;20559;-57
2023/05/17 07:07:45;;;;;;;13.68;3.30;;;;;;;9.60;71.22;97221.81;2096942;28;20883;-57
2023/05/17 07:08:47;;;;;;;9.73;3.00;;;;;;;9.89;70.93;97233.06;2099849;28;20196;-57
2023/05/17 07:09:48;;;;;;;12.40;3.25;;;;;;;9.81;71.20;97224.63;2094805;28;20286;-57
2023/05/17 07:10:51;;;;;;;6.82;3.22;;;;;;;9.90;70.73;97228.69;2093612;28;20280;-57
2023/05/17 07:13:07;;;;;;;17.02;3.35;;;;;;;9.82;71.05;97228.94;2073509;27;20571;-57
2023/05/17 07:14:08;;;;;;;13.68;4.10;;;;;;;9.72;71.48;97230.16;2074064;28;20336;-57
2023/05/17 07:15:10;;;;;;;6.57;3.67;;;;;;;9.50;71.66;97237.78;2071797;28;20198;-57
2023/05/17 07:16:11;;;;;;;8.55;2.58;;;;;;;9.47;71.98;97230.91;2073461;28;20204;-57
2023/05/17 07:17:13;;;;;;;13.60;3.45;;;;;;;9.55;71.57;97236.75;2069633;28;20203;-57
2023/05/17 07:18:15;;;;;;;7.20;3.15;;;;;;;9.92;71.69;97239.94;2071296;28;20199;-57
2023/05/17 07:19:16;;;;;;;10.88;3.10;;;;;;;10.07;71.02;97244.66;2073752;28;20654;-57
2023/05/17 07:20:19;;;;;;;9.82;3.00;;;;;;;10.27;70.69;97243.13;2073831;28;20209;-56
2023/05/17 07:21:22;;;;;;;11.32;3.60;;;;;;;9.73;70.14;97237.94;2073838;28;20203;-56
2023/05/17 07:22:24;;;;;;;13.43;3.65;;;;;;;9.73;70.95;97240.53;2073151;28;21065;-57
2023/05/17 07:23:25;;;;;;;8.52;3.38;;;;;;;9.78;71.16;97240.41;2071303;28;20313;-57
2023/05/17 07:24:27;;;;;;;16.38;3.95;;;;;;;9.75;71.06;97238.75;2073352;28;20201;-57
2023/05/17 07:25:28;;;;;;;10.48;2.88;;;;;;;9.78;71.29;97233.41;2073556;28;20197;-56
2023/05/17 07:26:30;;;;;;;14.20;3.53;;;;;;;10.12;70.20;97234.91;2073476;28;20682;-59
2023/05/17 07:27:32;;;;;;;6.60;2.83;;;;;;;10.29;70.16;97236.94;2074143;28;20254;-59
2023/05/17 07:28:35;;;;;;;8.40;2.75;;;;;;;10.50;69.86;97242.38;2073422;28;20256;-59
2023/05/17 07:29:36;;;;;;;9.43;2.90;;;;;;;10.41;69.94;97234.84;2069943;28;20199;-59
2023/05/17 07:30:38;;;;;;;12.07;3.38;;;;;;;10.37;69.25;97239.31;2071544;28;20255;-60
2023/05/17 07:31:39;;;;;;;10.52;3.60;;;;;;;10.32;69.85;97228.16;2073522;28;20786;-59
2023/05/17 07:32:41;;;;;;;11.27;3.10;;;;;;;10.40;69.74;97241.00;2072296;28;20696;-59
2023/05/17 07:33:43;;;;;;;13.68;3.03;;;;;;;10.48;70.21;97243.34;2070081;28;20212;-59
2023/05/17 07:34:45;;;;;;;10.40;3.20;;;;;;;10.27;70.86;97243.13;2070189;28;20206;-58
2023/05/17 07:35:49;;;;;;;32.53;16.65;;;;;;;10.25;71.66;97243.19;2070061;28;20196;-58
2023/05/17 07:36:50;;;;;;;87.18;42.28;;;;;;;10.22;70.47;97237.22;2072735;28;20200;-58
2023/05/17 07:37:52;;;;;;;90.65;48.17;;;;;;;10.28;70.21;97235.25;2072328;28;20459;-59
2023/05/17 07:38:53;;;;;;;16.52;7.00;;;;;;;10.22;70.58;97242.44;2073433;28;20869;-59
2023/05/17 07:39:55;;;;;;;9.88;3.60;;;;;;;10.32;69.67;97238.59;2073725;28;20292;-59
2023/05/17 07:40:56;;;;;;;10.15;3.00;;;;;;;10.21;69.52;97227.66;2073587;28;20711;-59
2023/05/17 07:41:58;;;;;;;7.25;3.45;;;;;;;9.77;70.20;97244.75;2073495;28;20200;-59
2023/05/17 07:42:59;;;;;;;9.43;3.35;;;;;;;9.91;70.04;97244.28;2072778;28;20351;-59
2023/05/17 07:44:01;;;;;;;13.23;3.80;;;;;;;10.07;69.77;97243.81;2073447;28;20204;-59
2023/05/17 07:45:03;;;;;;;12.00;2.80;;;;;;;9.58;70.55;97247.06;2073606;28;20257;-59
2023/05/17 07:46:04;;;;;;;12.55;3.35;;;;;;;9.95;70.08;97243.31;2074039;28;20976;-59
2023/05/17 07:47:06;;;;;;;8.18;3.13;;;;;;;9.77;70.11;97236.91;2073796;28;20257;-59
2023/05/17 07:48:07;;;;;;;18.45;3.50;;;;;;;9.73;70.26;97240.53;2072456;28;20229;-59
2023/05/17 07:49:09;;;;;;;11.88;3.60;;;;;;;9.75;70.72;97254.38;2073757;28;20198;-59
2023/05/17 07:50:11;;;;;;;9.20;2.97;;;;;;;10.34;69.29;97249.84;2069774;28;20199;-59
2023/05/17 07:51:12;;;;;;;14.98;3.53;;;;;;;10.26;69.49;97244.06;2073743;28;20310;-59
2023/05/17 07:52:16;;;;;;;12.23;3.78;;;;;;;10.16;69.69;97240.91;2072919;28;20211;-59
2023/05/17 07:53:18;;;;;;;13.05;2.97;;;;;;;10.34;69.17;97254.22;2073449;28;20610;-59
2023/05/17 07:54:23;;;;;;;10.98;3.30;;;;;;;10.10;68.87;97213.22;2072107;28;20282;-59
2023/05/17 07:55:25;;;;;;;8.88;3.00;;;;;;;10.21;68.82;97248.53;2069884;28;20230;-59
2023/05/17 07:56:26;;;;;;;10.43;3.67;;;;;;;10.29;68.25;97249.16;2071172;28;20205;-59
2023/05/17 07:57:28;;;;;;;9.65;3.55;;;;;;;10.37;67.70;97249.75;2074004;28;20195;-59
2023/05/17 07:58:29;;;;;;;7.07;2.78;;;;;;;10.85;67.59;97247.25;2073766;28;20200;-59
2023/05/17 07:59:31;;;;;;;9.00;3.50;;;;;;;11.40;66.45;97237.38;2073737;28;20256;-59
2023/05/17 08:00:32;;;;;;;11.63;3.35;;;;;;;11.60;65.90;97244.44;2074526;28;20298;-59
2023/05/17 08:01:34;;;;;;;7.25;2.88;;;;;;;11.59;63.85;97240.13;2074252;28;20201;-59
2023/05/17 08:02:35;;;;;;;10.77;3.83;;;;;;;11.88;64.58;97247.69;2073561;28;20227;-59
2023/05/17 08:03:37;;;;;;;9.23;2.92;;;;;;;11.93;64.32;97235.28;2073085;28;20238;-59
2023/05/17 08:04:40;;;;;;;12.18;3.50;;;;;;;12.28;64.22;97240.88;2072423;28;20236;-57
2023/05/17 08:05:42;;;;;;;6.20;2.50;;;;;;;12.48;63.60;97236.53;2073774;28;20211;-57
2023/05/17 08:06:47;;;;;;;7.70;3.15;;;;;;;12.44;63.03;97245.44;2073964;28;20208;-57
2023/05/17 08:07:49;;;;;;;8.40;2.80;;;;;;;11.53;63.86;97237.72;2071089;28;20229;-57
2023/05/17 08:08:50;;;;;;;11.93;3.10;;;;;;;11.99;64.05;97244.69;2072653;28;20768;-57
2023/05/17 08:09:51;;;;;;;7.82;2.83;;;;;;;12.24;62.98;97234.91;2074501;28;20622;-57
2023/05/17 08:10:53;;;;;;;5.88;3.33;;;;;;;12.34;62.94;97235.38;2069956;28;20208;-57
2023/05/17 08:11:54;;;;;;;9.90;2.85;;;;;;;12.58;62.86;97240.47;2074856;28;20198;-57
2023/05/17 08:12:56;;;;;;;9.73;3.63;;;;;;;13.00;61.96;97228.16;2069247;28;20229;-57
2023/05/17 08:13:57;;;;;;;8.43;3.40;;;;;;;13.17;61.31;97241.34;2069959;28;20202;-57
2023/05/17 08:14:59;;;;;;;12.35;3.30;;;;;;;13.58;60.85;97239.53;2073498;28;20201;-57
2023/05/17 08:16:02;;;;;;;8.80;3.08;;;;;;;13.81;60.04;97243.69;2073161;28;20205;-57
2023/05/17 08:17:14;;;;;;;9.38;2.58;;;;;;;13.66;59.65;97240.00;2072989;28;20647;-57
2023/05/17 08:18:16;;;;;;;7.32;2.97;;;;;;;13.93;59.88;97243.09;2073620;28;21225;-57
2023/05/17 08:19:18;;;;;;;12.95;3.80;;;;;;;14.03;59.91;97241.72;2073298;28;20197;-57
2023/05/17 08:20:20;;;;;;;18.55;7.22;;;;;;;14.06;59.73;97245.97;2073450;28;20645;-57
2023/05/17 08:21:21;;;;;;;8.43;3.20;;;;;;;14.07;59.70;97247.66;2069740;28;20209;-57
2023/05/17 08:22:23;;;;;;;13.80;3.50;;;;;;;14.07;59.72;97242.41;2070022;28;20707;-57
2023/05/17 08:23:24;;;;;;;13.07;3.50;;;;;;;13.57;61.31;97243.09;2073494;28;20664;-57
2023/05/17 08:24:26;;;;;;;9.30;2.72;;;;;;;13.69;59.74;97232.84;2068496;28;20206;-57
2023/05/17 08:25:27;;;;;;;10.73;3.15;;;;;;;13.57;60.13;97245.69;2068390;28;20660;-57
2023/05/17 08:26:29;;;;;;;12.95;3.03;;;;;;;13.32;59.05;97244.19;2067959;28;20193;-57
2023/05/17 08:27:31;;;;;;;12.95;3.67;;;;;;;13.66;59.88;97240.00;2068215;28;20209;-57
2023/05/17 08:28:32;;;;;;;9.85;2.47;;;;;;;13.38;60.22;97251.78;2068000;28;20198;-57
2023/05/17 08:29:34;;;;;;;7.15;2.80;;;;;;;13.64;58.96;97253.22;2064355;28;20685;-58
2023/05/17 08:30:37;;;;;;;9.15;2.65;;;;;;;13.63;59.76;97246.25;2068269;28;20199;-56
2023/05/17 08:31:39;;;;;;;8.02;2.85;;;;;;;13.67;59.32;97241.72;2068272;28;20198;-57
2023/05/17 08:32:41;;;;;;;10.07;2.50;;;;;;;13.69;59.77;97251.22;2066018;28;20226;-56
2023/05/17 08:33:43;;;;;;;8.05;3.13;;;;;;;13.47;60.14;97246.16;2066021;28;20289;-56
2023/05/17 08:34:44;;;;;;;7.63;3.25;;;;;;;13.46;60.73;97246.19;2068398;28;20257;-56
2023/05/17 08:35:46;;;;;;;10.40;2.92;;;;;;;13.94;61.21;97247.44;2067953;28;20194;-57
2023/05/17 08:36:47;;;;;;;13.63;3.22;;;;;;;14.05;59.00;97254.75;2064134;28;20194;-57
2023/05/17 08:37:49;;;;;;;9.32;3.40;;;;;;;13.89;58.99;97246.81;2066992;28;20631;-56
2023/05/17 08:38:51;;;;;;;8.27;3.10;;;;;;;13.53;58.46;97243.25;2068013;28;20214;-56
2023/05/17 08:39:52;;;;;;;6.45;2.42;;;;;;;13.11;59.42;97248.66;2067863;28;20784;-56
2023/05/17 08:40:55;;;;;;;10.18;4.00;;;;;;;13.14;59.89;97249.38;2064130;28;20199;-57
2023/05/17 08:41:58;;;;;;;17.13;3.20;;;;;;;13.31;60.87;97251.22;2064839;28;20218;-56
2023/05/17 08:43:01;;;;;;;11.15;3.33;;;;;;;13.79;60.45;97242.88;2063652;28;20745;-56
2023/05/17 08:44:05;;;;;;;8.07;2.97;;;;;;;13.52;59.58;97249.41;2065594;28;20269;-56
2023/05/17 08:45:07;;;;;;;7.25;2.85;;;;;;;13.58;59.16;97253.50;2064155;28;20199;-57
2023/05/17 08:46:09;;;;;;;10.35;3.05;;;;;;;13.59;58.27;97242.09;2064486;28;20328;-57
2023/05/17 08:47:11;;;;;;;9.65;2.95;;;;;;;14.11;57.28;97236.09;2064046;28;20329;-57
2023/05/17 08:48:12;;;;;;;9.43;2.65;;;;;;;13.37;57.81;97243.09;2063955;28;20253;-57
2023/05/17 08:49:15;;;;;;;10.27;3.30;;;;;;;13.22;58.62;97244.59;2068071;28;20202;-57
2023/05/17 08:50:17;;;;;;;8.95;3.17;;;;;;;13.38;59.58;97246.56;2067830;28;20282;-56
2023/05/17 08:51:19;;;;;;;14.43;3.40;;;;;;;13.82;58.89;97243.59;2068182;28;20202;-56
2023/05/17 08:52:21;;;;;;;9.70;2.70;;;;;;;13.66;59.30;97248.75;2066598;28;20213;-57
2023/05/17 08:53:24;;;;;;;9.48;2.95;;;;;;;14.08;58.66;97246.75;2067740;28;20217;-57
2023/05/17 08:54:26;;;;;;;10.05;2.80;;;;;;;14.77;57.38;97237.16;2064257;28;20621;-57
2023/05/17 08:55:31;;;;;;;8.07;3.22;;;;;;;14.85;56.82;97239.38;2068080;28;20280;-57
2023/05/17 08:56:38;;;;;;;9.30;3.13;;;;;;;15.08;56.59;97235.53;2068495;28;20244;-57
2023/05/17 08:57:41;;;;;;;11.85;3.25;;;;;;;14.76;55.30;97234.63;2067823;28;20222;-56
2023/05/17 08:58:44;;;;;;;15.77;3.10;;;;;;;14.95;55.56;97235.34;2067896;28;20659;-59
2023/05/17 09:00:11;;;;;;;8.23;3.60;;;;;;;14.64;56.59;97231.69;2068554;28;20289;-57
2023/05/17 09:01:13;;;;;;;10.45;2.95;;;;;;;15.14;55.40;97235.22;2067116;28;20333;-57
2023/05/17 09:02:15;;;;;;;15.55;3.22;;;;;;;15.25;55.05;97234.63;2067618;28;20685;-56
2023/05/17 09:03:17;;;;;;;11.40;2.40;;;;;;;14.16;54.06;97230.59;2067770;28;20327;-56
2023/05/17 09:04:20;;;;;;;8.88;3.20;;;;;;;12.88;56.82;97237.44;2067424;28;20754;-56
2023/05/17 09:05:21;;;;;;;10.68;3.03;;;;;;;13.71;56.98;97236.25;2066067;28;20293;-56
2023/05/17 09:06:23;;;;;;;8.45;3.58;;;;;;;14.22;56.36;97235.56;2064064;28;20616;-56
2023/05/17 09:07:24;;;;;;;9.73;3.15;;;;;;;14.66;56.25;97234.25;2064013;28;20281;-57
2023/05/17 09:08:27;;;;;;;13.23;3.30;;;;;;;14.34;57.08;97236.72;2064004;28;20206;-56
2023/05/17 09:09:29;;;;;;;10.18;3.22;;;;;;;14.26;56.39;97241.47;2064158;28;20204;-56
2023/05/17 09:10:30;;;;;;;9.80;2.38;;;;;;;14.26;56.91;97242.34;2068561;28;20260;-57
2023/05/17 09:11:32;;;;;;;7.15;3.30;;;;;;;14.45;57.20;97241.41;2068200;28;20198;-57
2023/05/17 09:12:34;;;;;;;14.00;3.67;;;;;;;14.29;57.52;97238.72;2066731;28;20230;-57
2023/05/17 09:13:36;;;;;;;10.88;3.78;;;;;;;14.41;57.61;97245.13;2065380;28;20217;-56
2023/05/17 09:14:37;;;;;;;8.63;3.15;;;;;;;14.09;57.16;97245.78;2063972;28;20313;-56
2023/05/17 09:15:53;;;;;;;7.72;2.63;;;;;;;14.03;57.87;97243.50;2067798;28;20199;-56
2023/05/17 09:16:56;;;;;;;13.98;3.00;;;;;;;14.26;56.64;97244.13;2067957;28;20208;-57
2023/05/17 09:17:58;;;;;;;7.45;3.00;;;;;;;14.39;57.20;97241.75;2066645;28;20304;-57
2023/05/17 09:19:02;;;;;;;7.75;3.33;;;;;;;14.51;56.86;97247.22;2067593;28;20224;-57
2023/05/17 09:20:06;;;;;;;14.48;3.13;;;;;;;14.61;57.17;97250.19;2067471;28;20206;-57
2023/05/17 09:21:08;;;;;;;11.43;3.00;;;;;;;14.43;55.44;97241.50;2067568;28;20210;-57
2023/05/17 09:22:14;;;;;;;7.90;2.80;;;;;;;13.85;56.54;97240.84;2067838;28;20208;-56
2023/05/17 09:23:19;;;;;;;6.85;2.95;;;;;;;13.45;57.85;97244.50;2066766;28;20218;-56
2023/05/17 09:24:28;;;;;;;11.27;3.78;;;;;;;13.62;57.94;97241.09;2067152;28;20658;-56
2023/05/17 09:25:30;;;;;;;7.82;2.90;;;;;;;13.76;58.32;97249.13;2067602;28;20288;-56
2023/05/17 09:26:43;;;;;;;9.52;3.40;;;;;;;13.37;59.12;97244.88;2067206;28;20402;-56
2023/05/17 09:27:45;;;;;;;6.15;2.33;;;;;;;13.55;58.83;97246.63;2068197;28;20226;-56
2023/05/17 09:28:47;;;;;;;10.45;3.67;;;;;;;13.35;58.76;97247.50;2067974;28;20260;-56
2023/05/17 09:29:48;;;;;;;13.60;3.20;;;;;;;13.58;59.26;97245.63;2068128;28;20288;-57
2023/05/17 09:30:50;;;;;;;6.93;2.95;;;;;;;13.51;60.10;97247.69;2067086;28;20604;-57
2023/05/17 09:31:51;;;;;;;14.68;3.00;;;;;;;13.69;59.70;97245.97;2063763;28;20203;-57
2023/05/17 09:32:54;;;;;;;8.02;2.88;;;;;;;13.51;59.93;97244.19;2063417;28;20210;-56
2023/05/17 09:33:58;;;;;;;8.80;3.33;;;;;;;13.64;58.91;97244.50;2068051;28;20211;-57
2023/05/17 09:35:01;;;;;;;8.88;3.10;;;;;;;13.30;57.67;97246.88;2067686;28;20659;-56
2023/05/17 09:36:03;;;;;;;6.75;2.70;;;;;;;12.95;57.65;97240.63;2066346;28;20706;-56
2023/05/17 09:37:04;;;;;;;7.45;3.10;;;;;;;13.04;58.21;97240.22;2067585;28;20201;-56
2023/05/17 09:38:13;;;;;;;8.35;2.88;;;;;;;13.12;58.19;97238.09;2067204;28;20295;-57
2023/05/17 09:39:14;;;;;;;9.63;3.50;;;;;;;13.19;57.28;97234.28;2067985;28;20577;-56
2023/05/17 09:40:24;;;;;;;5.85;2.50;;;;;;;12.77;57.58;97242.28;2066136;28;20253;-56
2023/05/17 09:41:26;;;;;;;13.15;3.92;;;;;;;12.95;58.10;97244.09;2063915;28;20289;-56
2023/05/17 09:42:28;;;;;;;7.88;3.40;;;;;;;12.43;59.04;97248.97;2066959;28;20281;-56
2023/05/17 09:43:30;;;;;;;10.45;2.75;;;;;;;12.49;60.19;97246.94;2067277;28;20294;-56
2023/05/17 09:44:48;;;;;;;9.93;3.40;;;;;;;12.78;60.23;97247.44;2067417;28;20256;-56
2023/05/17 09:45:57;;;;;;;9.57;2.80;;;;;;;12.34;60.22;97253.72;2067602;28;20193;-56
2023/05/17 09:46:58;;;;;;;7.35;3.08;;;;;;;12.66;60.71;97251.47;2066873;28;20228;-56
2023/05/17 09:48:16;;;;;;;8.43;3.35;;;;;;;12.78;59.97;97255.31;2066433;28;20942;-56
2023/05/17 09:49:18;;;;;;;10.40;3.60;;;;;;;12.66;60.91;97243.63;2066929;28;20678;-56
2023/05/17 09:50:20;;;;;;;7.70;2.88;;;;;;;12.33;60.64;97245.88;2065688;28;20682;-56
2023/05/17 09:51:35;;;;;;;12.15;3.30;;;;;;;12.33;61.33;97253.75;2064661;28;20689;-57
2023/05/17 09:52:38;;;;;;;10.35;3.25;;;;;;;12.46;60.99;97248.88;2065945;28;20324;-56
2023/05/17 09:53:41;;;;;;;8.30;3.20;;;;;;;12.37;61.31;97248.31;2067302;28;20221;-56
2023/05/17 09:54:42;;;;;;;13.95;3.65;;;;;;;12.02;62.98;97252.41;2067206;28;20225;-57
2023/05/17 09:55:47;;;;;;;13.20;3.95;;;;;;;11.79;62.50;97246.31;2069554;28;20273;-56
2023/05/17 09:56:53;;;;;;;11.55;3.08;;;;;;;11.64;62.76;97255.59;2069867;28;20234;-56
2023/05/17 09:58:02;;;;;;;7.57;3.20;;;;;;;11.62;63.19;97252.22;2063204;28;20344;-56
2023/05/17 09:59:10;;;;;;;21.25;3.72;;;;;;;11.44;62.71;97236.31;2066205;28;20658;-56
2023/05/17 10:00:16;;;;;;;11.73;3.28;;;;;;;11.61;63.38;97250.50;2066476;28;20201;-59
2023/05/17 10:01:18;;;;;;;14.23;3.30;;;;;;;11.23;64.15;97251.06;2063672;28;20290;-59
2023/05/17 10:02:22;;;;;;;9.40;2.92;;;;;;;11.43;63.72;97258.16;2063817;28;20746;-60
2023/05/17 10:03:26;;;;;;;12.90;3.88;;;;;;;11.31;64.63;97257.78;2067526;28;20313;-59
2023/05/17 10:04:30;;;;;;;7.90;2.70;;;;;;;11.07;64.61;97257.78;2074972;28;20672;-59
2023/05/17 10:05:32;;;;;;;7.53;3.33;;;;;;;11.42;64.67;97260.84;2074266;28;20188;-59
2023/05/17 10:06:38;;;;;;;7.15;3.83;;;;;;;11.33;64.61;97255.97;2064550;28;20212;-59
2023/05/17 10:07:53;;;;;;;20.10;3.70;;;;;;;11.52;64.33;97262.19;2065344;28;20222;-59
2023/05/17 10:08:57;;;;;;;12.68;3.47;;;;;;;11.45;64.85;97260.69;2065452;28;20206;-59
2023/05/17 10:20:49;;;;;;;11.75;4.30;;;;;;;10.99;63.54;97265.06;2107871;27;20571;-57
2023/05/17 10:21:52;;;;;;;11.70;4.47;;;;;;;11.24;63.38;97267.63;2103257;28;20225;-56
2023/05/17 10:22:55;;;;;;;9.77;3.95;;;;;;;11.49;63.30;97262.31;2100198;27;20277;-57
2023/05/17 10:24:01;;;;;;;13.23;3.63;;;;;;;11.51;63.53;97264.84;2096468;28;20715;-57
2023/05/17 10:25:03;;;;;;;13.95;4.70;;;;;;;11.64;63.08;97262.63;2098299;28;20230;-57
2023/05/17 10:26:05;;;;;;;15.13;4.45;;;;;;;11.92;62.69;97263.22;2096257;28;20311;-57
2023/05/17 10:27:07;;;;;;;8.48;3.90;;;;;;;11.77;62.43;97259.47;2102327;28;20192;-57
2023/05/17 10:28:10;;;;;;;10.82;3.45;;;;;;;11.68;62.61;97259.81;2102012;28;20223;-57
2023/05/17 10:29:13;;;;;;;6.88;3.08;;;;;;;11.74;61.91;97253.47;2098844;28;20210;-57
2023/05/17 10:30:17;;;;;;;8.65;3.50;;;;;;;11.87;61.96;97256.47;2099664;28;20697;-57
2023/05/17 10:31:20;;;;;;;13.07;4.30;;;;;;;11.71;62.07;97262.31;2100741;28;20195;-57
2023/05/17 10:32:25;;;;;;;9.35;3.25;;;;;;;11.87;62.32;97254.72;2097591;28;20282;-57
2023/05/17 10:33:28;;;;;;;9.77;3.80;;;;;;;11.93;61.91;97251.84;2098418;28;20200;-57
2023/05/17 10:34:30;;;;;;;10.43;4.03;;;;;;;12.03;62.27;97257.56;2097514;28;20226;-57
2023/05/17 10:35:33;;;;;;;11.95;3.90;;;;;;;12.15;61.27;97265.84;2098067;28;20199;-57
2023/05/17 10:36:34;;;;;;;10.38;4.32;;;;;;;12.13;61.47;97259.84;2098674;28;20205;-57
2023/05/17 10:37:36;;;;;;;7.55;3.80;;;;;;;12.18;60.46;97229.91;2098583;28;20216;-57
2023/05/17 10:38:38;;;;;;;10.05;3.95;;;;;;;12.63;60.30;97263.84;2100173;28;20203;-57
2023/05/17 10:39:45;;;;;;;10.65;3.90;;;;;;;12.39;60.52;97256.09;2098539;28;20227;-57
2023/05/17 10:40:50;;;;;;;10.50;3.70;;;;;;;12.48;60.55;97257.50;2099020;28;20244;-59
2023/05/17 10:41:54;;;;;;;9.48;3.97;;;;;;;12.40;60.51;97257.81;2097938;28;20198;-59
2023/05/17 10:43:15;;;;;;;7.82;3.40;;;;;;;12.29;60.43;97258.28;2098041;28;20295;-59
2023/05/17 10:44:18;;;;;;;14.40;4.45;;;;;;;12.21;59.90;97271.69;2098184;28;20555;-59
2023/05/17 10:45:21;;;;;;;11.77;4.03;;;;;;;12.09;59.73;97264.34;2099306;28;20341;-59
2023/05/17 10:46:23;;;;;;;13.98;4.70;;;;;;;12.36;59.54;97279.81;2097227;28;20631;-59
2023/05/17 10:47:31;;;;;;;7.85;2.85;;;;;;;12.35;59.42;97265.03;2097406;28;20269;-59
2023/05/17 10:48:33;;;;;;;12.85;4.15;;;;;;;12.11;59.80;97259.88;2098428;28;20204;-59
2023/05/17 10:49:38;;;;;;;11.50;4.15;;;;;;;12.18;60.58;97269.19;2097988;28;20239;-59
2023/05/17 10:50:39;;;;;;;14.13;4.15;;;;;;;12.05;61.38;97271.47;2098146;28;20279;-59
2023/05/17 10:53:11;;;;;;;10.27;3.95;;;;;;;11.64;61.61;97231.22;2082299;28;21270;-57
2023/05/17 10:55:47;;;;;;;14.23;3.90;;;;;;;11.85;62.20;97267.00;2090528;28;20543;-57
2023/05/17 10:58:19;;;;;;;6.25;3.40;;;;;;;11.40;62.30;97257.41;2082210;28;20577;-57
2023/05/17 11:00:48;;;;;;;10.27;3.97;;;;;;;11.67;61.59;97271.19;2100214;27;20589;-57
2023/05/17 11:03:25;;;;;;;10.80;3.70;;;;;;;11.89;61.53;97273.81;2089918;27;20590;-57
2023/05/17 11:04:38;;;;;;;11.45;3.85;;;;;;;11.99;61.13;97266.47;2089785;28;20563;-57
2023/05/17 11:05:43;;;;;;;13.88;3.90;;;;;;;12.15;60.64;97274.56;2090544;28;20225;-57
2023/05/17 11:06:45;;;;;;;10.68;3.90;;;;;;;12.08;60.06;97254.78;2090609;28;20201;-57
2023/05/17 11:07:47;;;;;;;11.18;3.97;;;;;;;11.87;60.90;97259.94;2090940;28;20630;-59
2023/05/17 11:09:24;;;;;;;9.40;4.60;;;;;;;12.04;61.33;97271.53;2097535;28;20194;-59
2023/05/17 11:10:25;;;;;;;11.10;4.03;;;;;;;11.88;61.54;97277.38;2088237;28;20208;-59
2023/05/17 11:11:27;;;;;;;11.30;3.28;;;;;;;12.25;60.86;97267.16;2089930;28;20962;-59
2023/05/17 11:12:34;;;;;;;15.18;3.75;;;;;;;12.32;61.01;97259.94;2087949;28;20343;-59
2023/05/17 11:13:53;;;;;;;7.13;3.50;;;;;;;12.31;60.30;97279.16;2089199;28;20200;-59
2023/05/17 11:14:55;;;;;;;5.63;3.33;;;;;;;12.48;60.40;97274.06;2087865;28;20728;-59
2023/05/17 11:16:04;;;;;;;12.25;3.63;;;;;;;12.41;59.85;97268.22;2089247;28;20208;-59
2023/05/17 11:17:12;;;;;;;8.65;3.17;;;;;;;12.45;60.94;97268.13;2081870;28;20848;-58
2023/05/17 11:18:14;;;;;;;10.18;3.28;;;;;;;12.40;60.47;97268.28;2081273;28;20221;-58
2023/05/17 11:19:31;;;;;;;12.73;4.40;;;;;;;12.18;60.16;97269.19;2088727;28;20268;-58
2023/05/17 11:20:33;;;;;;;8.48;4.18;;;;;;;12.15;60.86;97268.47;2088161;28;20231;-58
2023/05/17 11:21:44;;;;;;;10.30;3.28;;;;;;;11.95;60.12;97250.91;2088880;28;20200;-58
2023/05/17 11:22:55;;;;;;;9.77;3.38;;;;;;;11.68;62.25;97267.69;2089133;28;20232;-59
2023/05/17 11:24:00;;;;;;;8.25;3.60;;;;;;;11.49;63.03;97271.91;2089549;28;20624;-59
2023/05/17 11:25:09;;;;;;;9.27;3.33;;;;;;;11.79;61.92;97276.88;2088045;28;20201;-58
2023/05/17 11:26:47;;;;;;;6.57;3.22;;;;;;;12.02;61.88;97275.97;2088388;28;20209;-58
2023/05/17 11:27:51;;;;;;;13.20;2.90;;;;;;;11.88;62.00;97271.25;2083775;28;20645;-58
2023/05/17 11:29:00;;;;;;;12.07;3.90;;;;;;;11.81;61.10;97285.47;2089153;28;20636;-58
2023/05/17 11:31:31;;;;;;;8.77;2.97;;;;;;;11.83;61.95;97274.03;2089035;28;20559;-56
2023/05/17 11:32:32;;;;;;;11.00;4.05;;;;;;;11.70;62.16;97263.22;2086504;28;20312;-56
2023/05/17 11:33:44;;;;;;;11.73;3.20;;;;;;;11.75;62.04;97282.19;2084021;28;20557;-56
2023/05/17 11:34:51;;;;;;;16.02;4.40;;;;;;;11.64;62.73;97275.69;2082145;28;20220;-56
2023/05/17 11:35:54;;;;;;;9.90;3.35;;;;;;;11.81;62.45;97269.78;2083260;28;20248;-57
2023/05/17 11:36:55;;;;;;;12.02;3.58;;;;;;;12.02;61.81;97268.97;2084070;28;20283;-55
2023/05/17 11:38:20;;;;;;;8.57;3.38;;;;;;;12.44;60.61;97262.00;2081554;28;20221;-55
2023/05/17 11:39:23;;;;;;;10.85;3.90;;;;;;;12.26;60.39;97258.41;2082918;28;20747;-55
2023/05/17 11:40:29;;;;;;;8.65;3.13;;;;;;;12.52;60.40;97266.91;2081657;28;20205;-55
2023/05/17 11:41:36;;;;;;;14.25;3.10;;;;;;;12.56;60.08;97261.50;2082701;28;20650;-56
2023/05/17 11:42:38;;;;;;;9.93;3.60;;;;;;;12.64;60.04;97268.19;2081219;28;20224;-56
2023/05/17 11:43:44;;;;;;;14.68;3.25;;;;;;;12.73;59.63;97266.03;2074219;28;20231;-56
2023/05/17 11:44:46;;;;;;;11.57;3.88;;;;;;;13.03;59.26;97262.09;2074160;28;20209;-57
2023/05/17 11:45:52;;;;;;;8.18;3.83;;;;;;;13.03;58.47;97252.47;2073922;28;20550;-57
2023/05/17 11:47:08;;;;;;;11.32;4.05;;;;;;;13.08;57.80;97260.13;2074908;28;20231;-57
2023/05/17 11:48:11;;;;;;;9.82;3.38;;;;;;;13.39;57.47;97261.38;2073681;28;20636;-57
2023/05/17 11:49:13;;;;;;;9.13;3.50;;;;;;;13.39;57.33;97257.00;2074396;28;20233;-56
2023/05/17 11:50:36;;;;;;;15.35;3.60;;;;;;;13.35;58.17;97251.91;2075671;28;20205;-57
2023/05/17 11:51:37;;;;;;;9.05;3.10;;;;;;;13.37;58.30;97261.44;2075028;28;20252;-57
2023/05/17 11:52:40;;;;;;;9.07;3.45;;;;;;;13.53;58.31;97258.97;2073357;28;20221;-56
2023/05/17 11:53:46;;;;;;;6.10;2.88;;;;;;;13.47;58.12;97254.00;2074521;28;20251;-57
2023/05/17 11:54:48;;;;;;;9.30;3.53;;;;;;;13.70;58.52;97260.78;2074387;28;20793;-56
2023/05/17 11:55:51;;;;;;;10.45;4.30;;;;;;;13.92;57.24;97258.94;2075829;28;20752;-57
2023/05/17 11:56:53;;;;;;;7.68;2.83;;;;;;;13.28;56.65;97247.88;2077078;28;20206;-56
2023/05/17 11:57:55;;;;;;;13.20;3.55;;;;;;;13.35;57.34;97249.28;2074914;28;20304;-57
2023/05/17 11:58:58;;;;;;;9.25;3.33;;;;;;;13.50;57.41;97263.50;2076204;28;20203;-56
2023/05/17 12:00:03;;;;;;;8.05;3.28;;;;;;;13.63;57.39;97256.75;2073958;28;20203;-56
2023/05/17 12:01:04;;;;;;;8.55;3.10;;;;;;;13.62;56.45;97255.03;2075002;28;20209;-58
2023/05/17 12:02:06;;;;;;;10.68;3.17;;;;;;;13.70;55.90;97259.97;2073316;28;20221;-57
2023/05/17 12:03:21;;;;;;;6.85;3.33;;;;;;;13.67;55.86;97254.84;2072487;28;20234;-57
2023/05/17 12:04:24;;;;;;;5.80;2.80;;;;;;;13.73;55.24;97261.59;2074052;28;20209;-57
2023/05/17 12:05:26;;;;;;;7.30;2.60;;;;;;;13.69;56.65;97258.25;2072235;28;20268;-57
2023/05/17 12:06:28;;;;;;;5.10;2.85;;;;;;;13.70;56.10;97254.72;2072702;28;20238;-57
2023/05/17 12:07:29;;;;;;;9.18;3.22;;;;;;;13.68;56.74;97257.38;2075104;28;20240;-57
2023/05/17 12:08:35;;;;;;;5.00;2.55;;;;;;;13.58;56.00;97253.50;2077615;28;20760;-57
2023/05/17 12:09:39;;;;;;;7.25;3.45;;;;;;;12.84;57.76;97257.66;2077556;28;20289;-57
2023/05/17 12:10:49;;;;;;;49.75;28.67;;;;;;;13.02;58.42;97255.16;2074773;28;20217;-57
2023/05/17 12:11:50;;;;;;;150.77;86.45;;;;;;;13.26;58.32;97254.97;2074994;28;20641;-57
2023/05/17 12:12:52;;;;;;;20.50;10.65;;;;;;;13.25;57.66;97258.50;2074864;28;20651;-57